Time;durP1;ratioP1;P1;durP2;ratioP2;P2;SDS_P1;SDS_P2;PMS_P1;PMS_P2;Temp;Humidity;BMP_temperature;BMP_pressure;BME280_temperature;BME280_humidity;BME280_pressure;Samples;Min_cycle;Max_cycle;Signal;HPM_P1;HPM_P2
2022/12/02 00:01:17;;;;;;;;;;;3.60;99.90;;;2.57;100.00;97613.16;5051087;28;20801;-41
2022/12/02 00:03:43;;;;;;;;;;;3.50;99.90;;;2.57;100.00;97615.75;5050382;28;19947;-41
2022/12/02 00:06:24;;;;;;;;;;;3.50;99.90;;;2.55;100.00;97609.66;5048819;28;20613;-41
2022/12/02 00:08:50;;;;;;;;;;;3.50;99.90;;;2.48;100.00;97599.25;5050914;28;19921;-41
2022/12/02 00:11:26;;;;;;;;;;;3.50;99.90;;;2.55;100.00;97605.34;5033726;28;19947;-41
2022/12/02 00:13:52;;;;;;;;;;;3.50;99.90;;;2.57;100.00;97605.34;5048087;28;19959;-41
2022/12/02 00:16:20;;;;;;;;;;;3.50;99.90;;;2.57;100.00;97602.72;5031919;28;19927;-41
2022/12/02 00:18:46;;;;;;;;;;;3.50;99.90;;;2.63;100.00;97600.97;5048659;28;20398;-41
2022/12/02 00:21:12;;;;;;;;;;;3.50;99.90;;;2.62;100.00;97600.97;5045562;28;20923;-41
2022/12/02 00:23:37;;;;;;;;;;;3.50;99.90;;;2.63;100.00;97600.09;5039268;28;19912;-41
2022/12/02 00:26:03;;;;;;;;;;;3.50;99.90;;;2.51;100.00;97579.28;5047482;28;19920;-41
2022/12/02 00:28:29;;;;;;;;;;;3.50;99.90;;;2.58;100.00;97586.22;5042996;28;19955;-41
2022/12/02 00:30:54;;;;;;;;;;;3.50;99.90;;;2.57;100.00;97594.91;5043455;28;20265;-41
2022/12/02 00:33:20;;;;;;;;;;;3.50;99.90;;;2.52;100.00;97597.53;5042799;28;19924;-41
2022/12/02 00:35:45;;;;;;;;;;;3.50;99.90;;;2.47;100.00;97587.09;5047287;28;20011;-41
2022/12/02 00:38:11;;;;;;;;;;;3.40;99.90;;;2.40;100.00;97584.53;5044620;28;20388;-42
2022/12/02 00:40:37;;;;;;;;;;;3.40;99.90;;;2.44;100.00;97592.34;5048905;28;20279;-41
2022/12/02 00:48:32;;;;;;;;;;;3.40;99.90;;;2.43;100.00;97580.19;5055045;28;19963;-40
2022/12/02 00:50:57;;;;;;;;;;;3.30;99.90;;;2.45;100.00;97577.56;5050565;28;20327;-41
2022/12/02 00:53:23;;;;;;;;;;;3.40;99.90;;;2.39;100.00;97573.25;5052555;28;19920;-41
2022/12/02 00:55:49;;;;;;;;;;;3.40;99.90;;;2.43;100.00;97582.78;5049435;28;19948;-40
2022/12/02 00:58:14;;;;;;;;;;;3.30;99.90;;;2.38;100.00;97571.50;5051578;28;19920;-41
2022/12/02 01:00:40;;;;;;;;;;;3.40;99.90;;;2.38;100.00;97576.72;5051789;28;19931;-41
2022/12/02 01:03:06;;;;;;;;;;;3.30;99.90;;;2.36;100.00;97581.06;5046627;28;20390;-41
2022/12/02 01:05:31;;;;;;;;;;;3.30;99.90;;;2.37;100.00;97567.19;5049140;28;19962;-41
2022/12/02 01:07:57;;;;;;;;;;;3.30;99.90;;;2.40;100.00;97569.75;5048577;28;20357;-40
2022/12/02 01:10:22;;;;;;;;;;;3.30;99.90;;;2.38;100.00;97563.69;5046013;28;19912;-41
2022/12/02 01:12:48;;;;;;;;;;;3.30;99.90;;;2.42;100.00;97561.94;5048386;28;19967;-41
2022/12/02 01:15:13;;;;;;;;;;;3.30;99.90;;;2.41;100.00;97553.28;5045527;28;20212;-40
2022/12/02 01:17:39;;;;;;;;;;;3.40;99.90;;;2.41;100.00;97565.44;5048878;28;20375;-41
2022/12/02 01:20:05;;;;;;;;;;;3.30;99.90;;;2.36;100.00;97562.84;5048526;28;19946;-41
2022/12/02 01:22:31;;;;;;;;;;;3.30;99.90;;;2.39;100.00;97557.63;5050634;28;19923;-41
2022/12/02 01:24:56;;;;;;;;;;;3.30;99.90;;;2.40;100.00;97556.75;5047422;28;19920;-41
2022/12/02 01:27:23;;;;;;;;;;;3.30;99.90;;;2.43;100.00;97556.75;5048750;28;20224;-41
2022/12/02 01:29:48;;;;;;;;;;;3.40;99.90;;;2.44;100.00;97563.69;5047949;28;19944;-41
2022/12/02 01:32:14;;;;;;;;;;;3.40;99.90;;;2.42;100.00;97557.63;5050967;28;20361;-41
2022/12/02 01:34:41;;;;;;;;;;;3.40;99.90;;;2.46;100.00;97554.16;5049643;28;19935;-41
2022/12/02 01:37:07;;;;;;;;;;;3.40;99.90;;;2.52;100.00;97552.41;5048423;28;19961;-41
2022/12/02 01:39:32;;;;;;;;;;;3.40;99.90;;;2.52;100.00;97544.59;5049924;28;20279;-41
2022/12/02 01:41:58;;;;;;;;;;;3.50;99.90;;;2.44;100.00;97553.28;5050206;28;19919;-41
2022/12/02 01:44:24;;;;;;;;;;;3.40;99.90;;;2.45;100.00;97556.75;5048596;28;19917;-41
2022/12/02 01:46:50;;;;;;;;;;;3.40;99.90;;;2.42;100.00;97552.44;5031189;28;19916;-41
2022/12/02 01:49:16;;;;;;;;;;;3.40;99.90;;;2.40;100.00;97550.69;5049587;28;19943;-40
2022/12/02 01:51:42;;;;;;;;;;;3.40;99.90;;;2.35;100.00;97552.41;5048177;28;19912;-40
2022/12/02 01:54:07;;;;;;;;;;;3.30;99.90;;;2.32;100.00;97547.25;5049662;28;19959;-41
2022/12/02 01:56:33;;;;;;;;;;;3.30;99.90;;;2.34;100.00;97546.34;5031764;28;20011;-40
2022/12/02 01:58:59;;;;;;;;;;;3.20;99.90;;;2.33;100.00;97533.34;5046955;28;20461;-40
2022/12/02 02:01:30;;;;;;;;;;;3.30;99.90;;;2.33;100.00;97538.56;5046691;28;19951;-41
2022/12/02 02:03:56;;;;;;;;;;;3.30;99.90;;;2.32;100.00;97542.91;5042259;28;19916;-40
2022/12/02 02:06:26;;;;;;;;;;;3.30;99.90;;;2.31;100.00;97541.16;5039363;28;20384;-40
2022/12/02 02:08:52;;;;;;;;;;;3.20;99.90;;;2.24;100.00;97527.31;5018665;28;20270;-41
2022/12/02 02:11:18;;;;;;;;;;;3.20;99.90;;;2.29;100.00;97533.34;5040018;28;19920;-40
2022/12/02 02:13:44;;;;;;;;;;;3.20;99.90;;;2.23;100.00;97509.94;5042288;28;20277;-40
2022/12/02 02:16:12;;;;;;;;;;;3.30;99.90;;;2.38;100.00;97542.88;5040050;28;19963;-41
2022/12/02 02:18:37;;;;;;;;;;;3.30;99.90;;;2.42;100.00;97533.31;5047137;28;19955;-40
2022/12/02 02:21:04;;;;;;;;;;;3.30;99.90;;;2.39;100.00;97531.59;5044926;28;20369;-40
2022/12/02 02:23:29;;;;;;;;;;;3.40;99.90;;;2.45;100.00;97534.19;5039514;28;19928;-40
2022/12/02 02:25:57;;;;;;;;;;;3.40;99.90;;;2.46;100.00;97533.31;5048497;28;19920;-41
2022/12/02 02:28:23;;;;;;;;;;;3.40;99.90;;;2.45;100.00;97530.72;5029659;28;19978;-40
2022/12/02 02:30:50;;;;;;;;;;;3.40;99.90;;;2.44;100.00;97535.06;5049495;28;20422;-40
2022/12/02 02:33:16;;;;;;;;;;;3.30;99.90;;;2.37;100.00;97525.53;5050150;28;20190;-40
2022/12/02 02:35:43;;;;;;;;;;;3.40;99.90;;;2.45;100.00;97528.97;5028523;28;19917;-40
2022/12/02 02:38:12;;;;;;;;;;;3.40;99.90;;;2.45;100.00;97520.31;5044105;28;19936;-41
2022/12/02 02:40:37;;;;;;;;;;;3.40;99.90;;;2.50;100.00;97528.13;5036050;28;19963;-41
2022/12/02 02:43:03;;;;;;;;;;;3.40;99.90;;;2.34;100.00;97498.66;5048037;28;20010;-40
2022/12/02 02:45:35;;;;;;;;;;;3.40;99.90;;;2.53;100.00;97518.56;5045668;28;19920;-40
2022/12/02 02:48:02;;;;;;;;;;;3.40;99.90;;;2.51;100.00;97514.22;5030252;28;19990;-41
2022/12/02 02:50:28;;;;;;;;;;;3.40;99.90;;;2.44;100.00;97514.25;5045954;28;19916;-40
2022/12/02 02:52:54;;;;;;;;;;;3.40;99.90;;;2.42;100.00;97518.59;5046119;28;19948;-40
2022/12/02 02:55:22;;;;;;;;;;;3.40;99.90;;;2.41;100.00;97511.63;5047586;28;19927;-40
2022/12/02 02:57:49;;;;;;;;;;;3.30;99.90;;;2.42;100.00;97505.56;5044058;28;20375;-40
2022/12/02 03:00:16;;;;;;;;;;;3.40;99.90;;;2.42;100.00;97512.50;5043145;28;20015;-40
2022/12/02 03:02:43;;;;;;;;;;;3.40;99.90;;;2.39;100.00;97508.19;5043336;28;20409;-40
2022/12/02 03:05:08;;;;;;;;;;;3.30;99.90;;;2.38;100.00;97505.56;5032531;28;19921;-41
2022/12/02 03:07:34;;;;;;;;;;;3.30;99.90;;;2.37;100.00;97506.44;5045666;28;19918;-41
2022/12/02 03:10:01;;;;;;;;;;;3.30;99.90;;;2.30;100.00;97500.41;5040693;28;20710;-41
2022/12/02 03:12:26;;;;;;;;;;;3.30;99.90;;;2.29;100.00;97499.50;5026551;28;19982;-41
2022/12/02 03:14:52;;;;;;;;;;;3.30;99.90;;;2.28;100.00;97495.19;5042302;28;19916;-41
2022/12/02 03:17:18;;;;;;;;;;;3.20;99.90;;;2.28;100.00;97500.41;5042927;28;20014;-40
2022/12/02 03:19:45;;;;;;;;;;;3.20;99.90;;;2.25;100.00;97495.19;5031795;28;20333;-40
2022/12/02 03:22:10;;;;;;;;;;;3.20;99.90;;;2.25;100.00;97500.41;5028755;28;20592;-41
2022/12/02 03:24:37;;;;;;;;;;;3.20;99.90;;;2.27;100.00;97490.84;5027540;28;19924;-41
2022/12/02 03:27:04;;;;;;;;;;;3.20;99.90;;;2.26;100.00;97496.06;5047588;28;19965;-41
2022/12/02 03:29:29;;;;;;;;;;;3.20;99.90;;;2.24;100.00;97496.09;5045051;28;19920;-41
2022/12/02 03:31:57;;;;;;;;;;;3.20;99.90;;;2.25;100.00;97496.94;5045738;28;20365;-41
2022/12/02 03:34:22;;;;;;;;;;;3.20;99.90;;;2.24;100.00;97488.28;5028985;28;20372;-41
2022/12/02 03:36:48;;;;;;;;;;;3.20;99.90;;;2.29;100.00;97494.31;5028350;28;19928;-40
2022/12/02 03:39:14;;;;;;;;;;;3.30;99.90;;;2.32;100.00;97498.66;5031359;28;20014;-41
2022/12/02 03:41:39;;;;;;;;;;;3.20;99.90;;;2.32;100.00;97495.19;5028157;28;20011;-41
2022/12/02 03:44:05;;;;;;;;;;;3.20;99.90;;;2.23;100.00;97481.31;5028268;28;20488;-41
2022/12/02 03:46:31;;;;;;;;;;;3.20;99.90;;;2.28;100.00;97491.72;5027926;28;20522;-41
2022/12/02 03:48:57;;;;;;;;;;;3.20;99.90;;;2.30;100.00;97490.00;5042736;28;19920;-40
2022/12/02 03:51:24;;;;;;;;;;;3.20;99.90;;;2.28;100.00;97476.97;5043503;28;19920;-41
2022/12/02 03:53:49;;;;;;;;;;;3.30;99.90;;;2.37;100.00;97494.31;5027823;28;19921;-41
2022/12/02 03:56:15;;;;;;;;;;;3.30;99.90;;;2.41;100.00;97493.41;5027559;28;19970;-41
2022/12/02 03:58:45;;;;;;;;;;;3.30;99.90;;;2.37;100.00;97485.59;5045904;28;19967;-41
2022/12/02 04:01:12;;;;;;;;;;;3.30;99.90;;;2.35;100.00;97490.84;5038983;28;19921;-41
2022/12/02 04:03:37;;;;;;;;;;;3.30;99.90;;;2.33;100.00;97478.69;5045102;28;19916;-41
2022/12/02 04:06:03;;;;;;;;;;;3.30;99.90;;;2.33;100.00;97489.09;5045522;28;19916;-41
2022/12/02 04:08:29;;;;;;;;;;;3.30;99.90;;;2.34;100.00;97489.09;5045146;28;20287;-41
2022/12/02 04:10:55;;;;;;;;;;;3.30;99.90;;;2.38;100.00;97479.53;5044952;28;19946;-41
2022/12/02 04:13:20;;;;;;;;;;;3.30;99.90;;;2.35;100.00;97472.63;5042441;28;20324;-41
2022/12/02 04:15:46;;;;;;;;;;;3.30;99.90;;;2.19;100.00;97442.28;5042068;28;19928;-41
2022/12/02 04:18:11;;;;;;;;;;;3.30;99.90;;;2.37;100.00;97473.47;5041423;28;20007;-41
2022/12/02 04:20:37;;;;;;;;;;;3.30;99.90;;;2.35;100.00;97477.84;5039285;28;19912;-40
2022/12/02 04:23:03;;;;;;;;;;;3.30;99.90;;;2.28;100.00;97463.09;5035047;28;19920;-41
2022/12/02 04:25:28;;;;;;;;;;;3.20;99.90;;;2.31;100.00;97462.22;5052298;28;19956;-41
2022/12/02 04:27:54;;;;;;;;;;;3.30;99.90;;;2.32;100.00;97456.16;5052801;28;19962;-41
2022/12/02 04:30:20;;;;;;;;;;;3.30;99.90;;;2.35;100.00;97457.00;5044119;28;20618;-41
2022/12/02 04:32:45;;;;;;;;;;;3.30;99.90;;;2.35;100.00;97461.31;5047670;28;20003;-41
2022/12/02 04:35:11;;;;;;;;;;;3.30;99.90;;;2.34;100.00;97455.25;5053355;28;19963;-41
2022/12/02 04:37:37;;;;;;;;;;;3.30;99.90;;;2.29;100.00;97452.66;5041559;28;19920;-41
2022/12/02 04:40:03;;;;;;;;;;;3.20;99.90;;;2.30;100.00;97456.16;5041417;28;20027;-41
2022/12/02 04:42:28;;;;;;;;;;;3.20;99.90;;;2.33;100.00;97457.88;5040214;28;19916;-41
2022/12/02 04:44:54;;;;;;;;;;;3.30;99.90;;;2.32;100.00;97446.59;5043240;28;20326;-41
2022/12/02 04:47:19;;;;;;;;;;;3.30;99.90;;;2.35;100.00;97445.72;5042728;28;20016;-41
2022/12/02 04:49:45;;;;;;;;;;;3.30;99.90;;;2.21;100.00;97424.97;5044485;28;19921;-41
2022/12/02 04:52:11;;;;;;;;;;;3.30;99.90;;;2.35;100.00;97453.53;5045861;28;19923;-40
2022/12/02 04:54:36;;;;;;;;;;;3.30;99.90;;;2.35;100.00;97450.91;5048790;28;19955;-41
2022/12/02 04:57:02;;;;;;;;;;;3.30;99.90;;;2.43;100.00;97447.41;5039851;28;20356;-40
2022/12/02 04:59:27;;;;;;;;;;;3.30;99.90;;;2.45;100.00;97448.28;5040326;28;20374;-40
2022/12/02 05:01:53;;;;;;;;;;;3.30;99.90;;;2.43;100.00;97452.63;5044177;28;20497;-41
2022/12/02 05:04:19;;;;;;;;;;;3.40;99.90;;;2.42;100.00;97444.81;5046456;28;20411;-41
2022/12/02 05:06:44;;;;;;;;;;;3.30;99.90;;;2.44;100.00;97451.75;5035415;28;20687;-41
2022/12/02 05:09:10;;;;;;;;;;;3.40;99.90;;;2.44;100.00;97446.56;5041628;28;20011;-40
2022/12/02 05:11:35;;;;;;;;;;;3.40;99.90;;;2.41;100.00;97436.16;5037229;28;19916;-41
2022/12/02 05:14:01;;;;;;;;;;;3.40;99.90;;;2.46;100.00;97447.41;5035262;28;20992;-40
2022/12/02 05:16:27;;;;;;;;;;;3.40;99.90;;;2.47;100.00;97446.53;5033693;28;19947;-40
2022/12/02 05:18:52;;;;;;;;;;;3.40;99.90;;;2.52;100.00;97449.13;5047695;28;19928;-41
2022/12/02 05:21:18;;;;;;;;;;;3.40;99.90;;;2.50;100.00;97448.28;5046564;28;19951;-40
2022/12/02 05:23:43;;;;;;;;;;;3.40;99.90;;;2.46;100.00;97438.75;5042960;28;20385;-41
2022/12/02 05:26:09;;;;;;;;;;;3.40;99.90;;;2.44;100.00;97436.16;5045353;28;20431;-41
2022/12/02 05:28:35;;;;;;;;;;;3.40;99.90;;;2.33;100.00;97421.44;5043699;28;20177;-41
2022/12/02 05:31:00;;;;;;;;;;;3.40;99.90;;;2.47;100.00;97440.47;5044403;28;19925;-41
2022/12/02 05:33:26;;;;;;;;;;;3.40;99.90;;;2.46;100.00;97441.34;5047544;28;20313;-40
2022/12/02 05:35:52;;;;;;;;;;;3.40;99.90;;;2.50;100.00;97445.66;5046089;28;19939;-41
2022/12/02 05:38:17;;;;;;;;;;;3.40;99.90;;;2.48;100.00;97440.47;5052236;28;20239;-40
2022/12/02 05:40:43;;;;;;;;;;;3.40;99.90;;;2.48;100.00;97439.59;5050804;28;20019;-41
2022/12/02 05:43:20;;;;;;;;;;;3.40;99.90;;;2.52;100.00;97446.53;5050758;28;19927;-41
2022/12/02 05:45:46;;;;;;;;;;;3.40;99.90;;;2.38;100.00;97415.34;5045992;28;19923;-40
2022/12/02 05:48:14;;;;;;;;;;;3.40;99.90;;;2.52;100.00;97437.84;5043205;28;20874;-41
2022/12/02 05:50:40;;;;;;;;;;;3.40;99.90;;;2.51;100.00;97436.09;5043718;28;20385;-41
2022/12/02 05:53:09;;;;;;;;;;;3.40;99.90;;;2.50;100.00;97435.25;5050834;28;19913;-40
2022/12/02 05:55:35;;;;;;;;;;;3.40;99.90;;;2.46;100.00;97443.97;5021106;28;19920;-41
2022/12/02 05:58:01;;;;;;;;;;;3.40;99.90;;;2.42;100.00;97442.22;5048424;28;19920;-41
2022/12/02 06:00:27;;;;;;;;;;;3.40;99.90;;;2.41;100.00;97436.16;5044452;28;20588;-43
2022/12/02 06:03:01;;;;;;;;;;;3.40;99.90;;;2.40;100.00;97438.75;5050301;28;19956;-41
2022/12/02 06:05:30;;;;;;;;;;;3.30;99.90;;;2.39;100.00;97432.69;5026600;28;20019;-41
2022/12/02 06:07:58;;;;;;;;;;;3.30;99.90;;;2.36;100.00;97437.91;5034651;28;19920;-41
2022/12/02 06:10:28;;;;;;;;;;;3.30;99.90;;;2.39;100.00;97432.69;5050318;28;19942;-41
2022/12/02 06:13:00;;;;;;;;;;;3.30;99.90;;;2.41;100.00;97435.28;5047293;28;19920;-41
2022/12/02 06:15:34;;;;;;;;;;;3.30;99.90;;;2.42;100.00;97434.41;5048735;28;19912;-40
2022/12/02 06:17:59;;;;;;;;;;;3.30;99.90;;;2.29;100.00;97404.97;5048370;28;20386;-40
2022/12/02 06:20:29;;;;;;;;;;;3.30;99.90;;;2.44;100.00;97427.44;5046424;28;19920;-40
2022/12/02 06:22:55;;;;;;;;;;;3.40;99.90;;;2.45;100.00;97431.81;5025023;28;19927;-40
2022/12/02 06:25:29;;;;;;;;;;;3.30;99.90;;;2.41;100.00;97438.75;5041070;28;19964;-40
2022/12/02 06:27:58;;;;;;;;;;;3.40;99.90;;;2.36;100.00;97432.69;5043410;28;19924;-40
2022/12/02 06:30:24;;;;;;;;;;;3.40;99.90;;;2.40;100.00;97431.81;5040061;28;19935;-41
2022/12/02 06:32:55;;;;;;;;;;;3.30;99.90;;;2.40;100.00;97434.41;5043444;28;20400;-41
2022/12/02 06:35:30;;;;;;;;;;;3.30;99.90;;;2.37;100.00;97425.75;5045554;28;19916;-41
2022/12/02 06:38:01;;;;;;;;;;;3.30;99.90;;;2.35;100.00;97423.19;5049065;28;19917;-41
2022/12/02 06:40:32;;;;;;;;;;;3.30;99.90;;;2.37;100.00;97420.53;5047976;28;19943;-41
2022/12/02 06:42:59;;;;;;;;;;;3.30;99.90;;;2.41;100.00;97424.88;5026272;28;19935;-41
2022/12/02 06:45:29;;;;;;;;;;;3.30;99.90;;;2.40;100.00;97424.00;5046206;28;19920;-40
2022/12/02 06:48:19;;;;;;;;;;;3.30;99.90;;;2.44;100.00;97422.25;5048419;28;19919;-40
2022/12/02 06:50:46;;;;;;;;;;;3.30;99.90;;;2.44;100.00;97425.72;5046721;28;20651;-41
2022/12/02 06:53:28;;;;;;;;;;;3.30;99.90;;;2.46;100.00;97423.97;5053244;28;19920;-41
2022/12/02 06:56:05;;;;;;;;;;;3.40;99.90;;;2.42;100.00;97411.88;5045830;28;20198;-41
2022/12/02 06:58:41;;;;;;;;;;;3.40;99.90;;;2.47;100.00;97423.09;5048959;28;20539;-40
2022/12/02 07:01:09;;;;;;;;;;;3.40;99.90;;;2.50;100.00;97429.19;5043032;28;20435;-40
2022/12/02 07:03:43;;;;;;;;;;;3.40;99.90;;;2.51;100.00;97426.56;5029343;28;20195;-40
2022/12/02 07:06:15;;;;;;;;;;;3.40;99.90;;;2.51;100.00;97423.94;5048029;28;20007;-40
2022/12/02 07:08:41;;;;;;;;;;;3.40;99.90;;;2.49;100.00;97425.69;5048299;28;19942;-40
2022/12/02 07:11:48;;;;;;;;;;;3.40;99.90;;;2.53;100.00;97431.75;5024984;28;20137;-40
2022/12/02 07:14:17;;;;;;;;;;;3.40;99.90;;;2.53;100.00;97430.03;5025794;28;19927;-40
2022/12/02 07:16:43;;;;;;;;;;;3.40;99.90;;;2.53;100.00;97432.66;5043242;28;20014;-40
2022/12/02 07:19:15;;;;;;;;;;;3.50;99.90;;;2.57;100.00;97431.75;5050329;28;20392;-41
2022/12/02 07:21:41;;;;;;;;;;;3.50;99.90;;;2.57;100.00;97428.28;5044219;28;19955;-40
2022/12/02 07:24:10;;;;;;;;;;;3.40;99.90;;;2.56;100.00;97424.78;5033232;28;20023;-40
2022/12/02 07:26:36;;;;;;;;;;;3.50;99.90;;;2.60;100.00;97429.13;5045307;28;19916;-40
2022/12/02 07:29:01;;;;;;;;;;;3.50;99.90;;;2.57;100.00;97433.50;5046419;28;20170;-40
2022/12/02 07:31:29;;;;;;;;;;;3.50;99.90;;;2.55;100.00;97430.00;5043613;28;20368;-40
2022/12/02 07:33:55;;;;;;;;;;;3.50;99.90;;;2.50;100.00;97418.78;5048874;28;19916;-40
2022/12/02 07:36:21;;;;;;;;;;;3.40;99.90;;;2.58;100.00;97440.41;5042211;28;19912;-40
2022/12/02 07:38:46;;;;;;;;;;;3.50;99.90;;;2.57;100.00;97441.31;5044908;28;21332;-40
2022/12/02 07:41:12;;;;;;;;;;;3.50;99.90;;;2.58;100.00;97432.59;5045828;28;19913;-40
2022/12/02 07:43:38;;;;;;;;;;;3.50;99.90;;;2.59;100.00;97426.53;5049392;28;20311;-40
2022/12/02 07:46:04;;;;;;;;;;;3.50;99.90;;;2.60;100.00;97431.75;5045082;28;20541;-40
2022/12/02 07:48:30;;;;;;;;;;;3.50;99.90;;;2.56;100.00;97423.94;5051317;28;19925;-42
2022/12/02 07:50:55;;;;;;;;;;;3.50;99.90;;;2.55;100.00;97419.59;5046424;28;19912;-40
2022/12/02 07:53:21;;;;;;;;;;;3.50;99.90;;;2.59;100.00;97419.59;5046592;28;19927;-40
2022/12/02 07:55:47;;;;;;;;;;;3.50;99.90;;;2.41;100.00;97402.31;5047417;28;19970;-40
2022/12/02 07:58:13;;;;;;;;;;;3.50;99.90;;;2.55;100.00;97423.09;5046960;28;20031;-40
2022/12/02 08:00:38;;;;;;;;;;;3.50;99.90;;;2.61;100.00;97427.41;5042752;28;19961;-40
2022/12/02 08:03:04;;;;;;;;;;;3.50;99.90;;;2.62;100.00;97430.00;5048881;28;19974;-40
2022/12/02 08:05:29;;;;;;;;;;;3.50;99.90;;;2.63;100.00;97426.50;5047539;28;20344;-40
2022/12/02 08:07:55;;;;;;;;;;;3.50;99.90;;;2.61;100.00;97427.41;5046312;28;19912;-40
2022/12/02 08:10:21;;;;;;;;;;;3.50;99.90;;;2.60;100.00;97433.47;5052486;28;19916;-40
2022/12/02 08:12:47;;;;;;;;;;;3.50;99.90;;;2.57;100.00;97436.97;5032772;28;20730;-40
2022/12/02 08:15:13;;;;;;;;;;;3.50;99.90;;;2.47;100.00;97423.09;5044551;28;20450;-40
2022/12/02 08:17:39;;;;;;;;;;;3.40;99.90;;;2.53;100.00;97437.84;5042016;28;19924;-41
2022/12/02 08:20:07;;;;;;;;;;;3.50;99.90;;;2.50;100.00;97430.03;5046012;28;19920;-41
2022/12/02 08:22:33;;;;;;;;;;;3.40;99.90;;;2.47;100.00;97424.84;5044928;28;19924;-41
2022/12/02 08:24:58;;;;;;;;;;;3.40;99.90;;;2.50;100.00;97430.03;5044654;28;19920;-42
2022/12/02 08:27:24;;;;;;;;;;;3.40;99.90;;;2.50;100.00;97429.19;5048774;28;19966;-41
2022/12/02 08:29:51;;;;;;;;;;;3.40;99.90;;;2.52;100.00;97424.84;5049524;28;20028;-41
2022/12/02 08:32:17;;;;;;;;;;;3.40;99.90;;;2.55;100.00;97427.41;5048720;28;19912;-41
2022/12/02 08:34:43;;;;;;;;;;;3.40;99.90;;;2.51;100.00;97420.50;5051436;28;19927;-41
2022/12/02 08:37:09;;;;;;;;;;;3.40;99.90;;;2.52;100.00;97417.88;5049525;28;19916;-41
2022/12/02 08:39:34;;;;;;;;;;;3.50;99.90;;;2.40;100.00;97397.09;5047275;28;20258;-40
2022/12/02 08:42:00;;;;;;;;;;;3.40;99.90;;;2.56;100.00;97416.13;5049605;28;20364;-41
2022/12/02 08:44:26;;;;;;;;;;;3.50;99.90;;;2.57;100.00;97410.06;5050453;28;19960;-40
2022/12/02 08:46:51;;;;;;;;;;;3.50;99.90;;;2.62;100.00;97414.38;5048227;28;19927;-40
2022/12/02 08:49:17;;;;;;;;;;;3.50;99.90;;;2.63;100.00;97404.81;5047656;28;19912;-40
2022/12/02 08:51:43;;;;;;;;;;;3.50;99.90;;;2.67;100.00;97415.22;5050866;28;19955;-40
2022/12/02 08:54:08;;;;;;;;;;;3.60;99.90;;;2.70;100.00;97418.66;5048261;28;20011;-40
2022/12/02 08:56:34;;;;;;;;;;;3.60;99.90;;;2.66;100.00;97410.00;5028762;28;20046;-40
2022/12/02 08:59:00;;;;;;;;;;;3.60;99.90;;;2.62;100.00;97403.06;5037661;28;19986;-40
2022/12/02 09:01:25;;;;;;;;;;;3.60;99.90;;;2.64;100.00;97402.19;5050161;28;19919;-40
2022/12/02 09:03:51;;;;;;;;;;;3.60;99.90;;;2.70;100.00;97416.06;5053297;28;19964;-40
2022/12/02 09:06:16;;;;;;;;;;;3.60;99.90;;;2.72;100.00;97409.97;5054326;28;20476;-41
2022/12/02 09:08:42;;;;;;;;;;;3.60;99.90;;;2.73;100.00;97409.09;5039431;28;19916;-40
2022/12/02 09:11:08;;;;;;;;;;;3.60;99.90;;;2.75;100.00;97404.75;5052334;28;20003;-40
2022/12/02 09:13:33;;;;;;;;;;;3.60;99.90;;;2.72;100.00;97396.09;5052883;28;19916;-40
2022/12/02 09:15:59;;;;;;;;;;;3.60;99.90;;;2.79;100.00;97405.59;5042462;28;19920;-41
2022/12/02 09:18:26;;;;;;;;;;;3.60;99.90;;;2.80;100.00;97409.91;5046423;28;20306;-40
2022/12/02 09:20:52;;;;;;;;;;;3.70;99.90;;;2.81;100.00;97398.63;5039249;28;19995;-41
2022/12/02 09:23:17;;;;;;;;;;;3.70;99.90;;;2.85;100.00;97400.34;5055387;28;20006;-41
2022/12/02 09:25:43;;;;;;;;;;;3.70;99.90;;;2.86;100.00;97404.69;5051915;28;19927;-40
2022/12/02 09:28:08;;;;;;;;;;;3.70;99.90;;;2.79;100.00;97397.78;5054432;28;19943;-41
2022/12/02 09:30:34;;;;;;;;;;;3.70;99.90;;;2.82;100.00;97411.66;5047006;28;19948;-41
2022/12/02 09:33:00;;;;;;;;;;;3.70;99.90;;;2.81;100.00;97406.44;5045407;28;19924;-41
2022/12/02 09:35:25;;;;;;;;;;;3.70;99.90;;;2.80;100.00;97408.19;5029852;28;20376;-41
2022/12/02 09:37:51;;;;;;;;;;;3.70;99.90;;;2.80;100.00;97407.31;5044696;28;20023;-40
2022/12/02 09:40:17;;;;;;;;;;;3.70;99.90;;;2.76;100.00;97411.66;5053920;28;19919;-40
2022/12/02 09:42:43;;;;;;;;;;;3.70;99.90;;;2.74;100.00;97405.59;5052750;28;19920;-41
2022/12/02 09:45:09;;;;;;;;;;;3.70;99.90;;;2.74;100.00;97403.00;5053921;28;20615;-41
2022/12/02 09:47:35;;;;;;;;;;;3.70;99.90;;;2.73;100.00;97403.00;5023651;28;20854;-41
2022/12/02 09:50:00;;;;;;;;;;;3.70;99.90;;;2.71;100.00;97397.84;5045952;28;19930;-41
2022/12/02 09:52:28;;;;;;;;;;;3.60;99.90;;;2.61;100.00;97376.16;5049755;28;20163;-41
2022/12/02 09:54:57;;;;;;;;;;;3.70;99.90;;;2.74;100.00;97403.00;5047325;28;20396;-41
2022/12/02 09:57:29;;;;;;;;;;;3.70;99.90;;;2.76;100.00;97398.66;5032236;28;19955;-41
2022/12/02 09:59:56;;;;;;;;;;;3.70;99.90;;;2.79;100.00;97393.44;5044105;28;19921;-41
2022/12/02 10:02:28;;;;;;;;;;;3.70;99.90;;;2.84;100.00;97386.44;5046217;28;20683;-41
2022/12/02 10:04:54;;;;;;;;;;;3.70;99.90;;;2.79;100.00;97366.53;5030060;28;20560;-40
2022/12/02 10:07:20;;;;;;;;;;;3.80;99.90;;;2.90;100.00;97393.34;5022261;28;20184;-41
2022/12/02 10:09:46;;;;;;;;;;;3.80;99.90;;;2.88;100.00;97386.44;5040407;28;19916;-41
2022/12/02 10:12:11;;;;;;;;;;;3.80;99.90;;;2.85;100.00;97385.59;5036794;28;20417;-41
2022/12/02 10:14:37;;;;;;;;;;;3.80;99.90;;;2.90;100.00;97389.91;5051581;28;20296;-42
2022/12/02 10:17:14;;;;;;;;;;;3.80;99.90;;;2.88;100.00;97378.63;5056021;23;19926;-55
2022/12/02 10:19:40;;;;;;;;;;;3.80;99.90;;;2.93;100.00;97377.72;5085750;28;20092;-55
2022/12/02 10:22:17;;;;;;;;;;;3.80;99.90;;;2.93;100.00;97374.25;5091136;28;19935;-55
2022/12/02 10:24:43;;;;;;;;;;;3.80;99.90;;;2.96;100.00;97379.41;5090883;28;20359;-55
2022/12/02 10:27:22;;;;;;;;;;;3.80;99.90;;;3.00;100.00;97375.94;5082456;28;19920;-55
2022/12/02 10:29:48;;;;;;;;;;;3.90;99.90;;;3.03;100.00;97379.38;5072303;28;20355;-56
2022/12/02 10:32:26;;;;;;;;;;;3.90;99.90;;;3.05;100.00;97371.53;5073498;28;19932;-57
2022/12/02 10:35:05;;;;;;;;;;;3.90;99.90;;;3.13;100.00;97369.75;5070900;28;19945;-57
2022/12/02 10:37:32;;;;;;;;;;;4.00;99.90;;;3.16;100.00;97372.34;5072926;28;19916;-55
2022/12/02 10:40:09;;;;;;;;;;;4.00;99.90;;;3.15;100.00;97361.91;5075838;28;19919;-55
2022/12/02 10:42:34;;;;;;;;;;;4.00;99.90;;;3.03;100.00;97345.50;5073910;28;19912;-55
2022/12/02 10:45:14;;;;;;;;;;;4.00;99.90;;;3.15;100.00;97357.56;5070896;28;20260;-54
2022/12/02 10:47:40;;;;;;;;;;;4.00;99.90;;;3.16;100.00;97361.03;5085536;28;20336;-55
2022/12/02 10:50:20;;;;;;;;;;;4.10;99.90;;;3.14;100.00;97361.06;5073195;28;19912;-55
2022/12/02 10:52:57;;;;;;;;;;;4.00;99.90;;;3.15;100.00;97357.56;5071960;28;19977;-55
2022/12/02 10:55:23;;;;;;;;;;;4.00;99.90;;;3.05;100.00;97353.28;5069717;28;19916;-54
2022/12/02 10:57:49;;;;;;;;;;;4.00;99.90;;;3.04;100.00;97359.41;5071470;28;19934;-53
2022/12/02 11:00:21;;;;;;;;;;;3.90;99.90;;;2.94;100.00;97348.16;5072164;28;19916;-53
2022/12/02 11:03:13;;;;;;;;;;;3.90;99.90;;;2.86;100.00;97350.84;5072568;28;19923;-55
2022/12/02 11:05:39;;;;;;;;;;;3.80;99.90;;;2.83;100.00;97347.38;5065837;28;19996;-52
2022/12/02 11:08:15;;;;;;;;;;;3.70;99.90;;;2.81;100.00;97334.38;5074318;28;19955;-53
2022/12/02 11:10:42;;;;;;;;;;;3.70;99.90;;;2.82;100.00;97337.88;5070026;28;20008;-55
2022/12/02 11:13:11;;;;;;;;;;;3.70;99.90;;;2.89;100.00;97336.06;5071996;28;19919;-55
2022/12/02 11:15:42;;;;;;;;;;;3.70;99.90;;;2.85;100.00;97338.72;5066887;28;20266;-55
2022/12/02 11:18:29;;;;;;;;;;;3.80;99.90;;;2.88;100.00;97334.34;5072143;28;19985;-56
2022/12/02 11:21:20;;;;;;;;;;;3.70;99.90;;;2.86;100.00;97334.34;5070025;28;19913;-55
2022/12/02 11:23:46;;;;;;;;;;;3.70;99.90;;;2.80;100.00;97330.06;5070619;28;19912;-55
2022/12/02 11:26:13;;;;;;;;;;;3.80;99.90;;;2.80;100.00;97319.63;5070534;28;19915;-55
2022/12/02 11:28:47;;;;;;;;;;;3.70;99.90;;;2.83;100.00;97322.19;5084918;28;19934;-55
2022/12/02 11:31:13;;;;;;;;;;;3.70;99.90;;;2.80;100.00;97321.34;5066678;28;19976;-56